TimeCST,TemperatureF,Dew PointF,Humidity,Sea Level PressureIn,VisibilityMPH,Wind Direction,Wind SpeedMPH,Gust SpeedMPH,PrecipitationIn,Events,Conditions,WindDirDegrees,DateUTC
12:15 AM,20.3,18.5,93,30.11,10.0,Calm,Calm,-,N/A,,Scattered Clouds,0,2013-01-15 06:15:00
12:35 AM,19.6,17.6,92,30.11,10.0,Calm,Calm,-,N/A,,Clear,0,2013-01-15 06:35:00
12:55 AM,18.5,16.5,92,30.11,10.0,SE,3.5,-,N/A,,Clear,140,2013-01-15 06:55:00
1:15 AM,19.0,17.2,93,30.11,10.0,SE,3.5,-,N/A,,Clear,140,2013-01-15 07:15:00
1:35 AM,19.0,17.1,92,30.10,10.0,Calm,Calm,-,N/A,,Clear,0,2013-01-15 07:35:00
1:55 AM,19.4,17.1,91,30.11,10.0,Calm,Calm,-,N/A,,Scattered Clouds,0,2013-01-15 07:55:00
2:15 AM,19.4,17.4,92,30.11,10.0,Calm,Calm,-,N/A,,Mostly Cloudy,0,2013-01-15 08:15:00
2:35 AM,19.9,18.1,93,30.10,10.0,East,3.5,-,N/A,,Overcast,100,2013-01-15 08:35:00
2:55 AM,20.7,18.7,92,30.10,10.0,ENE,3.5,-,N/A,,Overcast,70,2013-01-15 08:55:00
3:15 AM,21.9,19.8,91,30.11,10.0,ENE,3.5,-,N/A,,Overcast,60,2013-01-15 09:15:00
3:35 AM,22.3,20.5,93,30.11,10.0,Calm,Calm,-,N/A,,Overcast,0,2013-01-15 09:35:00
3:55 AM,22.8,21.0,93,30.10,10.0,Calm,Calm,-,N/A,,Overcast,0,2013-01-15 09:55:00
4:15 AM,23.0,21.0,92,30.11,10.0,Calm,Calm,-,N/A,,Overcast,0,2013-01-15 10:15:00
4:55 AM,22.3,20.5,93,30.10,10.0,Calm,Calm,-,N/A,,Overcast,0,2013-01-15 10:55:00
5:15 AM,22.8,20.8,92,30.11,10.0,Calm,Calm,-,N/A,,Overcast,0,2013-01-15 11:15:00
5:35 AM,23.4,21.2,91,30.11,10.0,NE,4.6,-,N/A,,Overcast,50,2013-01-15 11:35:00
5:55 AM,23.4,20.8,90,30.11,10.0,Calm,Calm,-,N/A,,Overcast,0,2013-01-15 11:55:00
6:15 AM,23.4,20.7,89,30.11,10.0,NNE,3.5,-,N/A,,Overcast,30,2013-01-15 12:15:00
6:35 AM,23.2,20.3,89,30.12,10.0,Calm,Calm,-,N/A,,Mostly Cloudy,0,2013-01-15 12:35:00
6:55 AM,22.6,19.8,89,30.13,10.0,Calm,Calm,-,N/A,,Mostly Cloudy,0,2013-01-15 12:55:00
7:15 AM,22.3,19.4,89,30.14,10.0,Calm,Calm,-,N/A,,Overcast,0,2013-01-15 13:15:00
7:35 AM,22.5,19.6,89,30.14,10.0,Calm,Calm,-,N/A,,Overcast,0,2013-01-15 13:35:00
7:55 AM,22.8,19.9,89,30.15,10.0,NE,3.5,-,N/A,,Overcast,50,2013-01-15 13:55:00
8:15 AM,22.6,19.9,89,30.16,10.0,Calm,Calm,-,N/A,,Overcast,0,2013-01-15 14:15:00
8:35 AM,22.8,19.9,89,30.17,10.0,Calm,Calm,-,N/A,,Overcast,0,2013-01-15 14:35:00
8:55 AM,23.4,20.5,89,30.18,10.0,ENE,4.6,-,N/A,,Overcast,70,2013-01-15 14:55:00
9:15 AM,23.7,20.8,89,30.19,10.0,ENE,4.6,-,N/A,,Overcast,60,2013-01-15 15:15:00
9:35 AM,24.1,20.8,87,30.19,10.0,NNE,4.6,-,N/A,,Overcast,20,2013-01-15 15:35:00
9:55 AM,24.4,20.3,84,30.20,10.0,NE,4.6,-,N/A,,Mostly Cloudy,40,2013-01-15 15:55:00
10:15 AM,25.2,20.5,82,30.21,10.0,North,4.6,-,N/A,,Mostly Cloudy,360,2013-01-15 16:15:00
10:35 AM,25.0,20.8,84,30.22,10.0,North,5.8,-,N/A,,Overcast,10,2013-01-15 16:35:00
10:55 AM,25.3,20.8,83,30.22,10.0,NE,3.5,-,N/A,,Overcast,50,2013-01-15 16:55:00
11:15 AM,25.7,20.7,81,30.20,10.0,East,4.6,-,N/A,,Overcast,100,2013-01-15 17:15:00
11:35 AM,27.1,20.7,77,30.19,10.0,East,4.6,-,N/A,,Scattered Clouds,90,2013-01-15 17:35:00
12:15 PM,28.8,21.2,73,30.18,10.0,North,4.6,-,N/A,,Clear,10,2013-01-15 18:15:00
12:35 PM,29.1,20.8,71,30.17,10.0,Calm,Calm,-,N/A,,Scattered Clouds,0,2013-01-15 18:35:00
12:55 PM,30.4,21.7,70,30.16,10.0,NE,5.8,-,N/A,,Scattered Clouds,50,2013-01-15 18:55:00
1:35 PM,32.0,21.9,66,30.14,10.0,NNE,4.6,-,N/A,,Clear,30,2013-01-15 19:35:00
1:55 PM,33.3,22.1,64,30.14,10.0,NNW,8.1,-,N/A,,Mostly Cloudy,330,2013-01-15 19:55:00
2:15 PM,33.6,21.2,60,30.14,10.0,North,6.9,-,N/A,,Scattered Clouds,360,2013-01-15 20:15:00
2:35 PM,34.2,21.0,59,30.14,10.0,NE,8.1,-,N/A,,Scattered Clouds,40,2013-01-15 20:35:00
2:55 PM,34.5,20.5,57,30.14,10.0,NE,6.9,-,N/A,,Mostly Cloudy,50,2013-01-15 20:55:00
3:15 PM,35.6,20.7,55,30.14,10.0,North,10.4,-,N/A,,Scattered Clouds,360,2013-01-15 21:15:00
3:35 PM,35.4,21.0,56,30.15,10.0,NNW,9.2,-,N/A,,Mostly Cloudy,340,2013-01-15 21:35:00
3:55 PM,34.9,21.2,57,30.16,10.0,North,6.9,-,N/A,,Mostly Cloudy,350,2013-01-15 21:55:00
4:15 PM,34.0,20.5,58,30.17,10.0,NNE,8.1,-,N/A,,Overcast,20,2013-01-15 22:15:00
4:35 PM,33.1,20.5,60,30.18,10.0,NNE,6.9,-,N/A,,Overcast,30,2013-01-15 22:35:00
4:55 PM,33.4,21.0,60,30.18,10.0,NNE,9.2,-,N/A,,Overcast,30,2013-01-15 22:55:00
5:15 PM,32.9,20.7,61,30.19,10.0,NNE,6.9,-,N/A,,Overcast,30,2013-01-15 23:15:00
5:35 PM,32.7,20.1,60,30.19,10.0,NNE,10.4,-,N/A,,Overcast,20,2013-01-15 23:35:00
6:15 PM,31.8,20.8,64,30.21,10.0,Calm,Calm,-,N/A,,Overcast,0,2013-01-16 00:15:00
6:35 PM,31.8,20.5,63,30.22,10.0,NE,5.8,-,N/A,,Overcast,40,2013-01-16 00:35:00
6:55 PM,31.1,20.8,66,30.23,10.0,ENE,6.9,-,N/A,,Overcast,70,2013-01-16 00:55:00
7:15 PM,30.0,21.0,69,30.23,10.0,East,4.6,-,N/A,,Overcast,90,2013-01-16 01:15:00
7:35 PM,28.9,20.5,71,30.24,10.0,ENE,4.6,-,N/A,,Scattered Clouds,70,2013-01-16 01:35:00
7:55 PM,28.0,19.9,72,30.24,10.0,Calm,Calm,-,N/A,,Clear,0,2013-01-16 01:55:00
8:15 PM,27.1,19.6,73,30.25,10.0,Calm,Calm,-,N/A,,Clear,0,2013-01-16 02:15:00
8:35 PM,26.6,19.6,75,30.27,10.0,Calm,Calm,-,N/A,,Clear,0,2013-01-16 02:35:00
8:55 PM,26.4,19.6,75,30.28,10.0,Calm,Calm,-,N/A,,Clear,0,2013-01-16 02:55:00
9:15 PM,24.4,19.2,81,30.28,10.0,Calm,Calm,-,N/A,,Clear,0,2013-01-16 03:15:00
9:35 PM,25.3,18.9,76,30.30,10.0,Calm,Calm,-,N/A,,Clear,0,2013-01-16 03:35:00
9:55 PM,23.2,18.3,82,30.29,10.0,SSE,5.8,-,N/A,,Clear,160,2013-01-16 03:55:00
10:15 PM,21.9,17.8,84,30.29,10.0,South,3.5,-,N/A,,Clear,190,2013-01-16 04:15:00
10:35 PM,20.7,17.1,86,30.29,10.0,South,4.6,-,N/A,,Clear,180,2013-01-16 04:35:00
10:55 PM,22.3,17.6,82,30.29,10.0,South,3.5,-,N/A,,Clear,180,2013-01-16 04:55:00
11:15 PM,23.2,17.2,78,30.30,10.0,South,3.5,-,N/A,,Clear,190,2013-01-16 05:15:00
11:35 PM,21.7,16.5,80,30.30,10.0,South,3.5,-,N/A,,Clear,180,2013-01-16 05:35:00